createdAt,value
2022-09-07T00:00:53.025Z,90.99
2022-09-07T00:01:53.012Z,91.09
2022-09-07T00:02:53.051Z,90.79
2022-09-07T00:03:53.037Z,90.99
2022-09-07T00:04:52.976Z,90.79
2022-09-07T00:05:52.945Z,90.69
2022-09-07T00:06:52.970Z,91.19
2022-09-07T00:07:52.922Z,91.30
2022-09-07T00:08:52.925Z,90.79
2022-09-07T00:09:52.904Z,90.65
2022-09-07T00:10:52.940Z,90.24
2022-09-07T00:11:52.869Z,89.94
2022-09-07T00:12:52.859Z,89.43
2022-09-07T00:13:52.867Z,89.34
2022-09-07T00:14:52.847Z,89.43
2022-09-07T00:15:52.859Z,89.13
2022-09-07T00:16:52.821Z,89.43
2022-09-07T00:17:52.797Z,89.43
2022-09-07T00:18:52.803Z,89.43
2022-09-07T00:19:52.777Z,89.54
2022-09-07T00:20:52.793Z,89.88
2022-09-07T00:21:52.726Z,90.08
2022-09-07T00:22:52.730Z,90.08
2022-09-07T00:23:52.735Z,90.39
2022-09-07T00:24:52.713Z,90.83
2022-09-07T00:25:54.245Z,91.24
2022-09-07T00:26:52.680Z,91.54
2022-09-07T00:27:52.659Z,91.85
2022-09-07T00:28:52.652Z,91.94
2022-09-07T00:29:52.642Z,92.09
2022-09-07T00:30:52.622Z,92.49
2022-09-07T00:31:52.658Z,92.40
2022-09-07T00:32:52.605Z,92.29
2022-09-07T00:33:52.612Z,92.60
2022-09-07T00:34:52.575Z,92.60
2022-09-07T00:35:52.571Z,92.49
2022-09-07T00:36:52.543Z,92.69
2022-09-07T00:37:52.536Z,92.94
2022-09-07T00:38:52.541Z,93.55
2022-09-07T00:39:52.599Z,93.55
2022-09-07T00:40:52.506Z,93.85
2022-09-07T00:41:52.484Z,94.36
2022-09-07T00:42:52.462Z,94.15
2022-09-07T00:43:52.474Z,94.36
2022-09-07T00:44:52.449Z,94.46
2022-09-07T00:45:52.444Z,94.56
2022-09-07T00:46:52.456Z,94.66
2022-09-07T00:47:52.408Z,94.56
2022-09-07T00:48:52.424Z,94.26
2022-09-07T00:49:52.396Z,93.79
2022-09-07T00:50:52.379Z,93.59
2022-09-07T00:51:52.357Z,93.49
2022-09-07T00:52:52.355Z,93.70
2022-09-07T00:53:52.408Z,93.79
2022-09-07T00:54:52.346Z,94.00
2022-09-07T00:55:52.311Z,93.90
2022-09-07T00:56:52.288Z,94.00
2022-09-07T00:57:52.301Z,94.20
2022-09-07T00:58:52.327Z,94.30
2022-09-07T00:59:52.258Z,94.24
2022-09-07T01:00:52.238Z,94.24
2022-09-07T01:01:52.370Z,94.35
2022-09-07T01:02:52.327Z,94.65
2022-09-07T01:03:52.207Z,94.75
2022-09-07T01:04:52.199Z,94.85
2022-09-07T01:05:52.181Z,94.95
2022-09-07T01:06:52.166Z,95.06
2022-09-07T01:07:52.141Z,95.26
2022-09-07T01:08:52.142Z,95.36
2022-09-07T01:09:52.152Z,95.06
2022-09-07T01:10:52.114Z,95.10
2022-09-07T01:11:52.081Z,95.20
2022-09-07T01:12:52.064Z,95.30
2022-09-07T01:13:52.060Z,95.30
2022-09-07T01:14:52.082Z,95.40
2022-09-07T01:15:52.123Z,95.71
2022-09-07T01:16:52.011Z,96.01
2022-09-07T01:17:52.041Z,96.01
2022-09-07T01:18:51.992Z,96.01
2022-09-07T01:19:52.035Z,96.01
2022-09-07T01:20:51.972Z,96.11
2022-09-07T01:21:51.963Z,96.31
2022-09-07T01:22:51.952Z,96.42
2022-09-07T01:23:51.944Z,96.42
2022-09-07T01:24:51.934Z,96.62
2022-09-07T01:25:51.913Z,96.51
2022-09-07T01:26:51.883Z,96.42
2022-09-07T01:27:51.915Z,96.31
2022-09-07T01:28:51.882Z,96.31
2022-09-07T01:29:51.881Z,96.11
2022-09-07T01:30:52.851Z,96.22
2022-09-07T01:31:51.855Z,96.31
2022-09-07T01:32:51.836Z,96.22
2022-09-07T01:33:51.795Z,96.01
2022-09-07T01:34:51.808Z,95.97
2022-09-07T01:35:51.786Z,95.76
2022-09-07T01:36:51.756Z,95.76
2022-09-07T01:37:56.330Z,95.81
2022-09-07T01:38:52.757Z,95.76
2022-09-07T01:39:51.781Z,95.91
2022-09-07T01:40:51.715Z,96.22
2022-09-07T01:41:51.708Z,96.27
2022-09-07T01:42:51.687Z,96.11
2022-09-07T01:43:51.685Z,96.11
2022-09-07T01:44:51.697Z,96.22
2022-09-07T01:45:51.667Z,96.27
2022-09-07T01:46:51.633Z,96.37
2022-09-07T01:47:51.628Z,96.37
2022-09-07T01:48:51.657Z,96.37
2022-09-07T01:49:51.591Z,96.37
2022-09-07T01:50:51.599Z,96.37
2022-09-07T01:51:51.569Z,96.27
2022-09-07T01:52:51.559Z,96.17
2022-09-07T01:53:51.553Z,96.17
2022-09-07T01:54:51.569Z,96.17
2022-09-07T01:55:51.520Z,96.07
2022-09-07T01:56:51.509Z,95.66
2022-09-07T01:57:51.508Z,95.31
2022-09-07T01:58:51.492Z,95.21
2022-09-07T01:59:51.470Z,95.01
2022-09-07T02:00:51.451Z,94.91
2022-09-07T02:01:51.507Z,94.60
2022-09-07T02:02:51.463Z,94.60
2022-09-07T02:03:51.421Z,94.81
2022-09-07T02:04:51.441Z,95.26
2022-09-07T02:05:51.392Z,95.36
2022-09-07T02:06:51.370Z,95.46
2022-09-07T02:07:51.378Z,95.56
2022-09-07T02:08:51.352Z,95.26
2022-09-07T02:09:51.357Z,95.15
2022-09-07T02:10:51.340Z,95.06
2022-09-07T02:11:51.332Z,95.06
2022-09-07T02:12:51.305Z,94.75
2022-09-07T02:13:51.300Z,94.85
2022-09-07T02:14:52.860Z,95.26
2022-09-07T02:15:51.358Z,95.46
2022-09-07T02:16:51.255Z,95.36
2022-09-07T02:17:51.247Z,95.56
2022-09-07T02:18:51.217Z,95.36
2022-09-07T02:19:51.232Z,95.26
2022-09-07T02:20:51.194Z,95.06
2022-09-07T02:21:51.174Z,94.95
2022-09-07T02:22:51.168Z,94.95
2022-09-07T02:23:51.156Z,95.26
2022-09-07T02:24:51.167Z,95.36
2022-09-07T02:25:51.127Z,95.56
2022-09-07T02:26:51.116Z,95.86
2022-09-07T02:27:51.113Z,95.76
2022-09-07T02:28:51.096Z,95.76
2022-09-07T02:29:51.099Z,95.86
2022-09-07T02:30:51.110Z,95.86
2022-09-07T02:31:51.088Z,96.07
2022-09-07T02:32:51.034Z,95.97
2022-09-07T02:33:51.044Z,96.22
2022-09-07T02:34:51.050Z,96.42
2022-09-07T02:35:51.008Z,96.42
2022-09-07T02:36:50.986Z,96.67
2022-09-07T02:37:50.990Z,96.37
2022-09-07T02:38:50.959Z,96.17
2022-09-07T02:39:51.043Z,95.86
2022-09-07T02:40:50.949Z,95.86
2022-09-07T02:41:50.938Z,95.97
2022-09-07T02:42:50.908Z,96.17
2022-09-07T02:43:50.915Z,96.11
2022-09-07T02:44:50.900Z,96.31
2022-09-07T02:45:50.896Z,96.51
2022-09-07T02:46:50.861Z,96.42
2022-09-07T02:47:50.851Z,96.31
2022-09-07T02:48:50.829Z,96.31
2022-09-07T02:49:50.842Z,96.31
2022-09-07T02:50:50.817Z,96.22
2022-09-07T02:51:50.809Z,95.91
2022-09-07T02:52:50.794Z,95.71
2022-09-07T02:53:50.791Z,95.61
2022-09-07T02:54:50.780Z,95.61
2022-09-07T02:55:50.780Z,95.81
2022-09-07T02:56:50.968Z,95.71
2022-09-07T02:57:50.797Z,95.81
2022-09-07T02:58:50.814Z,96.01
2022-09-07T02:59:50.762Z,96.01
2022-09-07T03:00:50.737Z,96.01
2022-09-07T03:01:50.752Z,95.91
2022-09-07T03:02:50.698Z,95.81
2022-09-07T03:03:50.753Z,96.01
2022-09-07T03:04:50.689Z,96.11
2022-09-07T03:05:50.613Z,96.22
2022-09-07T03:06:50.664Z,96.31
2022-09-07T03:07:50.595Z,96.42
2022-09-07T03:08:50.667Z,96.42
2022-09-07T03:09:50.602Z,96.62
2022-09-07T03:10:50.585Z,96.62
2022-09-07T03:11:50.538Z,96.31
2022-09-07T03:12:50.592Z,96.11
2022-09-07T03:13:50.734Z,95.91
2022-09-07T03:14:50.538Z,95.61
2022-09-07T03:15:55.572Z,95.40
2022-09-07T03:16:51.548Z,95.40
2022-09-07T03:17:50.547Z,95.30
2022-09-07T03:18:50.535Z,95.30
2022-09-07T03:19:53.759Z,95.40
2022-09-07T03:20:50.450Z,95.61
2022-09-07T03:21:50.455Z,95.61
2022-09-07T03:22:50.457Z,95.46
2022-09-07T03:23:51.937Z,95.26
2022-09-07T03:24:50.388Z,94.95
2022-09-07T03:25:50.358Z,95.20
2022-09-07T03:26:50.423Z,95.50
2022-09-07T03:27:50.332Z,95.40
2022-09-07T03:28:50.318Z,95.06
2022-09-07T03:29:50.332Z,95.15
2022-09-07T03:30:50.393Z,95.06
2022-09-07T03:31:50.282Z,95.15
2022-09-07T03:32:50.332Z,94.75
2022-09-07T03:33:50.339Z,94.55
2022-09-07T03:34:50.368Z,94.75
2022-09-07T03:35:50.289Z,94.75
2022-09-07T03:36:50.221Z,94.95
2022-09-07T03:37:50.271Z,95.20
2022-09-07T03:38:50.282Z,95.40
2022-09-07T03:39:50.269Z,95.30
2022-09-07T03:40:50.196Z,95.40
2022-09-07T03:41:52.854Z,95.71
2022-09-07T03:44:00.366Z,95.71
2022-09-07T03:45:00.457Z,95.61
2022-09-07T03:46:00.426Z,95.55
2022-09-07T03:47:00.366Z,95.55
2022-09-07T03:48:00.357Z,95.65
2022-09-07T03:49:01.317Z,95.75
2022-09-07T03:50:00.414Z,95.95
2022-09-07T04:03:40.802Z,97.52
2022-09-07T04:04:40.789Z,97.52
2022-09-07T04:05:40.759Z,97.62
2022-09-07T04:06:40.754Z,97.62
2022-09-07T04:07:40.759Z,97.47
2022-09-07T04:08:40.719Z,97.67
2022-09-07T04:09:40.745Z,97.87
2022-09-07T04:10:40.690Z,97.87
2022-09-07T04:11:40.693Z,97.97
2022-09-07T04:12:40.672Z,98.07
2022-09-07T04:13:40.675Z,98.18
2022-09-07T04:14:40.665Z,98.28
2022-09-07T04:15:40.632Z,98.28
2022-09-07T04:16:48.181Z,98.18
2022-09-07T04:17:40.611Z,97.87
2022-09-07T04:18:40.602Z,97.77
2022-09-07T04:19:40.598Z,97.97
2022-09-07T04:20:40.573Z,98.18
2022-09-07T04:21:40.574Z,98.18
2022-09-07T04:22:40.562Z,98.28
2022-09-07T04:23:40.540Z,98.18
2022-09-07T04:24:40.522Z,98.28
2022-09-07T04:25:40.529Z,98.38
2022-09-07T04:26:40.492Z,98.38
2022-09-07T04:27:41.473Z,98.48
2022-09-07T04:28:40.472Z,98.48
2022-09-07T04:29:40.482Z,98.48
2022-09-07T04:30:40.476Z,98.48
2022-09-07T04:31:40.435Z,98.48
2022-09-07T04:32:40.413Z,98.58
2022-09-07T04:33:40.457Z,98.63
2022-09-07T04:34:40.416Z,98.63
2022-09-07T04:35:40.375Z,98.63
2022-09-07T04:36:40.373Z,98.54
2022-09-07T04:37:40.335Z,98.54
2022-09-07T04:38:40.327Z,98.63
2022-09-07T04:39:40.421Z,98.74
2022-09-07T04:40:40.305Z,98.63
2022-09-07T04:41:40.296Z,98.43
2022-09-07T04:42:40.308Z,98.33
2022-09-07T04:43:40.284Z,98.28
2022-09-07T04:44:40.267Z,98.28
2022-09-07T04:45:40.270Z,98.28
2022-09-07T04:46:40.218Z,98.28
2022-09-07T04:47:40.228Z,98.18
2022-09-07T04:48:40.212Z,98.39
2022-09-07T04:49:40.205Z,98.28
2022-09-07T04:50:40.178Z,98.28
2022-09-07T04:51:40.169Z,98.14
2022-09-07T04:52:40.177Z,97.94
2022-09-07T04:53:40.138Z,98.03
2022-09-07T04:54:40.139Z,98.14
2022-09-07T04:55:40.109Z,98.24
2022-09-07T04:56:40.099Z,98.24
2022-09-07T04:57:40.092Z,98.34
2022-09-07T04:58:40.103Z,98.14
2022-09-07T04:59:40.068Z,98.14
2022-09-07T05:00:40.068Z,98.24
2022-09-07T05:01:40.065Z,98.34
2022-09-07T05:02:40.099Z,98.34
2022-09-07T05:03:40.056Z,98.29
2022-09-07T05:04:40.032Z,98.19
2022-09-07T05:05:39.991Z,98.09
2022-09-07T05:06:40.066Z,97.89
2022-09-07T05:07:39.967Z,97.89
2022-09-07T05:08:39.981Z,97.79
2022-09-07T05:09:40.018Z,97.44
2022-09-07T05:10:39.912Z,96.83
2022-09-07T05:11:39.911Z,96.22
2022-09-07T05:12:39.911Z,95.82
2022-09-07T05:13:39.892Z,95.62
2022-09-07T05:14:39.883Z,95.11
2022-09-07T05:15:39.865Z,95.31
2022-09-07T05:16:39.879Z,95.51
2022-09-07T05:17:39.854Z,95.62
2022-09-07T05:18:39.835Z,95.62
2022-09-07T05:19:39.835Z,95.82
2022-09-07T05:20:39.792Z,96.12
2022-09-07T05:21:39.784Z,96.18
2022-09-07T05:22:39.786Z,96.28
2022-09-07T05:23:40.754Z,96.48
2022-09-07T05:24:39.745Z,96.48
2022-09-07T05:25:39.758Z,96.28
2022-09-07T05:26:39.718Z,96.18
2022-09-07T05:27:39.705Z,96.18
2022-09-07T05:28:40.725Z,95.83
2022-09-07T05:31:40.676Z,95.53
2022-09-07T05:32:39.636Z,95.02
2022-09-07T05:34:40.648Z,94.92
2022-09-07T05:35:39.629Z,95.32
2022-09-07T05:36:39.598Z,95.53
2022-09-07T05:37:39.567Z,95.63
2022-09-07T05:38:40.574Z,95.93
2022-09-07T05:39:39.620Z,96.13
2022-09-07T05:40:40.810Z,96.23
2022-09-07T05:41:39.531Z,96.23
2022-09-07T05:42:39.507Z,96.34
2022-09-07T05:44:43.931Z,96.09
2022-09-07T05:45:39.536Z,95.98
2022-09-07T05:46:39.458Z,96.19
2022-09-07T05:47:39.452Z,96.49
2022-09-07T05:48:39.449Z,96.59
2022-09-07T05:49:39.420Z,96.59
2022-09-07T05:50:39.443Z,96.80
2022-09-07T05:51:39.398Z,96.89
2022-09-07T05:52:39.370Z,97.00
2022-09-07T05:53:39.379Z,96.80
2022-09-07T05:54:39.340Z,96.49
2022-09-07T05:55:39.342Z,95.94
2022-09-07T05:56:39.335Z,95.64
2022-09-07T05:57:39.314Z,95.43
2022-09-07T05:58:40.337Z,95.74
2022-09-07T05:59:39.319Z,95.84
2022-09-07T06:00:39.287Z,96.04
2022-09-07T06:01:39.334Z,96.25
2022-09-07T06:02:39.984Z,96.34
2022-09-07T06:03:39.334Z,96.55
2022-09-07T06:04:39.244Z,96.45
2022-09-07T06:05:39.213Z,96.85
2022-09-07T06:06:39.205Z,96.95
2022-09-07T06:07:39.186Z,96.95
2022-09-07T06:08:39.174Z,96.85
2022-09-07T06:11:39.134Z,97.36
2022-09-07T06:12:39.132Z,97.25
2022-09-07T06:13:39.115Z,97.25
2022-09-07T06:14:39.108Z,97.11
2022-09-07T06:15:39.107Z,96.50
2022-09-07T06:16:39.206Z,96.30
2022-09-07T06:17:39.056Z,96.40
2022-09-07T06:18:39.054Z,96.15
2022-09-07T06:19:40.027Z,96.05
2022-09-07T06:20:39.017Z,96.36
2022-09-07T06:21:39.017Z,96.45
2022-09-07T06:22:39.018Z,96.36
2022-09-07T06:23:38.998Z,96.15
2022-09-07T06:24:38.966Z,96.36
2022-09-07T06:25:38.968Z,95.85
2022-09-07T06:26:38.927Z,95.30
2022-09-07T06:27:38.927Z,95.20
2022-09-07T06:28:38.952Z,95.20
2022-09-07T06:29:39.918Z,95.40
2022-09-07T06:30:38.898Z,94.90
2022-09-07T06:32:43.028Z,94.55
2022-09-07T06:33:38.880Z,94.65
2022-09-07T06:34:39.852Z,94.45
2022-09-07T06:35:38.850Z,94.25
2022-09-07T06:36:38.822Z,94.35
2022-09-07T06:37:38.802Z,94.00
2022-09-07T06:38:38.801Z,94.00
2022-09-07T06:39:38.854Z,93.90
2022-09-07T06:40:38.750Z,93.35
2022-09-07T06:42:39.736Z,92.85
2022-09-07T06:43:42.849Z,92.75
2022-09-07T06:44:39.741Z,92.30
2022-09-07T06:45:38.734Z,92.20
2022-09-07T06:47:39.672Z,92.30
2022-09-07T06:48:42.495Z,92.50
2022-09-07T06:49:39.653Z,92.06
2022-09-07T06:50:38.633Z,92.06
2022-09-07T06:51:38.647Z,91.96
2022-09-07T06:53:41.858Z,92.46
2022-09-07T06:55:39.573Z,92.02
2022-09-07T06:56:38.563Z,92.02
2022-09-07T06:57:38.564Z,91.91
2022-09-07T06:58:42.317Z,91.82
2022-09-07T06:59:38.520Z,91.91
2022-09-07T07:00:38.528Z,91.71
2022-09-07T07:01:38.505Z,91.87
2022-09-07T07:02:38.465Z,92.07
2022-09-07T07:03:38.558Z,91.47
2022-09-07T07:04:41.009Z,91.67
2022-09-07T07:05:39.460Z,91.67
2022-09-07T07:06:38.436Z,91.32
2022-09-07T07:07:38.423Z,91.13
2022-09-07T07:08:38.397Z,90.82
2022-09-07T07:09:38.397Z,90.37
2022-09-07T07:10:38.367Z,90.17
2022-09-07T07:11:38.398Z,89.98
2022-09-07T07:13:09.363Z,89.37
2022-09-07T07:14:09.352Z,89.13
2022-09-07T07:15:09.326Z,88.83
2022-09-07T07:16:09.379Z,88.43
2022-09-07T07:17:09.339Z,88.18
2022-09-07T07:18:20.925Z,86.88
2022-09-07T07:19:10.297Z,87.68
2022-09-07T07:20:09.323Z,86.84
2022-09-07T07:21:09.274Z,86.94
2022-09-07T07:22:45.740Z,86.24
2022-09-07T07:23:10.246Z,86.69
2022-09-07T07:24:09.248Z,86.10
2022-09-07T07:25:09.211Z,86.19
2022-09-07T07:26:09.208Z,86.19
2022-09-07T07:27:09.177Z,85.25
2022-09-07T07:29:10.171Z,85.46
2022-09-07T07:30:09.144Z,84.95
2022-09-07T07:31:12.930Z,83.85
2022-09-07T07:32:09.118Z,84.25
2022-09-07T07:33:09.178Z,84.15
2022-09-07T07:34:09.134Z,85.15
2022-09-07T07:35:09.071Z,86.35
2022-09-07T07:36:10.070Z,86.35
2022-09-07T07:37:09.103Z,87.16
2022-09-07T07:40:19.784Z,86.21
2022-09-07T07:42:09.984Z,85.31
2022-09-07T07:43:08.991Z,85.11
2022-09-07T07:44:08.962Z,85.51
2022-09-07T07:46:10.005Z,85.71
2022-09-07T07:47:08.941Z,86.41
2022-09-07T07:48:08.913Z,86.71
2022-09-07T07:49:08.903Z,87.02
2022-09-07T07:51:12.098Z,84.81
2022-09-07T07:54:09.845Z,83.11
2022-09-07T07:56:09.816Z,84.01
2022-09-07T07:57:09.813Z,83.91
2022-09-07T07:58:08.797Z,84.01
2022-09-07T07:59:12.566Z,84.51
2022-09-07T08:00:09.776Z,84.71
2022-09-07T08:01:08.795Z,84.41
2022-09-07T08:02:09.984Z,83.91
2022-09-07T08:03:08.745Z,83.65
2022-09-07T08:04:08.717Z,83.85
2022-09-07T08:05:08.687Z,84.25
2022-09-07T08:06:08.686Z,83.55
2022-09-07T08:07:11.005Z,83.75
2022-09-07T08:08:08.657Z,83.61
2022-09-07T08:09:08.658Z,83.81
2022-09-07T08:10:08.643Z,84.01
2022-09-07T08:11:08.632Z,83.11
2022-09-07T08:12:09.611Z,82.31
2022-09-07T08:13:08.599Z,82.51
2022-09-07T08:14:08.669Z,82.71
2022-09-07T08:15:08.589Z,82.91
2022-09-07T08:16:08.587Z,83.11
2022-09-07T08:17:08.603Z,82.47
2022-09-07T08:18:09.550Z,82.27
2022-09-07T08:19:08.530Z,81.57
2022-09-07T08:20:08.502Z,80.77
2022-09-07T08:21:08.503Z,80.47
2022-09-07T08:22:08.499Z,79.36
2022-09-07T08:23:09.637Z,80.03
2022-09-07T08:24:08.473Z,80.23
2022-09-07T08:25:08.452Z,79.83
2022-09-07T08:26:08.465Z,79.63
2022-09-07T08:27:08.440Z,79.29
2022-09-07T08:28:08.448Z,79.59
2022-09-07T08:29:08.413Z,79.59
2022-09-07T08:30:08.392Z,79.19
2022-09-07T08:31:08.413Z,78.66
2022-09-07T08:32:08.374Z,78.75
2022-09-07T08:33:10.373Z,79.46
2022-09-07T08:34:08.344Z,79.55
2022-09-07T08:35:08.344Z,79.65
2022-09-07T08:36:08.366Z,79.82
2022-09-07T08:37:08.296Z,77.02
2022-09-07T08:38:08.303Z,77.32
2022-09-07T08:39:08.321Z,78.22
2022-09-07T08:40:08.373Z,76.82
2022-09-07T08:41:08.266Z,76.38
2022-09-07T08:42:08.245Z,75.38
2022-09-07T08:43:08.241Z,75.68
2022-09-07T08:44:08.250Z,75.78
2022-09-07T08:45:09.198Z,75.48
2022-09-07T08:46:08.215Z,74.55
2022-09-07T08:47:08.193Z,74.75
2022-09-07T08:48:08.200Z,74.85
2022-09-07T08:49:08.177Z,75.15
2022-09-07T08:50:08.139Z,75.05
2022-09-07T08:51:08.133Z,74.65
2022-09-07T08:52:08.187Z,74.95
2022-09-07T08:53:08.109Z,75.25
2022-09-07T08:54:08.099Z,75.71
2022-09-07T08:55:08.103Z,75.61
2022-09-07T08:56:08.080Z,73.72
2022-09-07T08:57:23.440Z,73.91
2022-09-07T08:58:18.126Z,73.52
2022-09-07T08:59:09.040Z,73.72
2022-09-07T09:00:08.030Z,73.78
2022-09-07T09:04:17.247Z,73.25
2022-09-07T09:05:17.445Z,73.35
2022-09-07T09:06:09.047Z,71.35
2022-09-07T09:07:08.062Z,72.65
2022-09-07T09:08:07.909Z,71.92
2022-09-07T09:09:08.903Z,73.11
2022-09-07T09:10:07.873Z,74.01
2022-09-07T09:11:07.865Z,74.67
2022-09-07T09:12:07.855Z,70.59
2022-09-07T09:13:07.865Z,72.38
2022-09-07T09:14:07.824Z,70.79
2022-09-07T09:15:07.815Z,68.10
2022-09-07T09:16:07.864Z,68.30
2022-09-07T09:17:07.797Z,68.50
2022-09-07T09:18:10.115Z,68.40
2022-09-07T09:19:08.746Z,69.56
2022-09-07T09:20:07.766Z,70.15
2022-09-07T09:21:07.755Z,68.66
2022-09-07T09:22:07.714Z,70.15
2022-09-07T09:23:07.707Z,70.12
2022-09-07T09:24:07.696Z,69.32
2022-09-07T09:25:07.689Z,69.23
2022-09-07T09:26:07.667Z,69.03
2022-09-07T09:27:07.657Z,68.93
2022-09-07T09:28:07.630Z,67.54
2022-09-07T09:29:07.668Z,68.23
2022-09-07T09:30:07.613Z,69.03
2022-09-07T09:31:07.646Z,69.09
2022-09-07T09:32:07.589Z,68.20
2022-09-07T09:33:07.558Z,68.20
2022-09-07T09:34:07.570Z,69.59
2022-09-07T09:35:08.569Z,69.59
2022-09-07T09:36:07.531Z,69.46
2022-09-07T09:37:07.522Z,69.16
2022-09-07T09:38:07.505Z,69.85
2022-09-07T09:39:07.494Z,65.58
2022-09-07T09:40:07.545Z,65.98
2022-09-07T09:41:08.472Z,66.44
2022-09-07T09:42:07.451Z,67.14
2022-09-07T09:43:07.451Z,66.15
2022-09-07T09:44:07.465Z,65.32
2022-09-07T09:45:08.413Z,64.13
2022-09-07T09:46:14.622Z,63.43
2022-09-07T10:04:01.451Z,62.26
2022-09-07T10:04:45.468Z,62.08
2022-09-07T10:05:44.470Z,63.84
2022-09-07T10:06:44.439Z,64.23
2022-09-07T10:07:44.438Z,61.36
2022-09-07T10:08:44.419Z,62.62
2022-09-07T10:09:44.443Z,63.12
2022-09-07T10:10:44.405Z,63.18
2022-09-07T10:12:45.407Z,63.75
2022-09-07T10:13:44.351Z,62.36
2022-09-07T10:14:44.373Z,60.48
2022-09-07T10:15:44.372Z,61.18
2022-09-07T10:16:44.315Z,62.26
2022-09-07T10:17:44.320Z,60.28
2022-09-07T10:18:44.307Z,58.47
2022-09-07T10:19:44.303Z,59.36
2022-09-07T10:20:44.276Z,59.06
2022-09-07T10:21:45.254Z,60.35
2022-09-07T10:22:46.613Z,61.34
2022-09-07T10:23:44.245Z,59.86
2022-09-07T10:24:44.234Z,60.92
2022-09-07T10:25:44.218Z,59.93
2022-09-07T10:26:45.194Z,60.39
2022-09-07T10:27:44.197Z,59.87
2022-09-07T10:29:45.155Z,58.39
2022-09-07T10:30:44.189Z,57.01
2022-09-07T10:31:44.199Z,57.30
2022-09-07T10:32:44.107Z,56.38
2022-09-07T10:34:25.372Z,56.36
2022-09-07T10:34:45.128Z,55.99
2022-09-07T10:35:44.084Z,58.83
2022-09-07T10:36:44.057Z,55.35
2022-09-07T10:37:44.057Z,55.66
2022-09-07T10:38:44.037Z,57.91
2022-09-07T10:39:44.077Z,56.90
2022-09-07T10:40:44.030Z,54.23
2022-09-07T10:41:44.035Z,56.60
2022-09-07T10:43:20.643Z,56.01
2022-09-07T10:43:44.973Z,56.33
2022-09-07T10:44:43.961Z,55.60
2022-09-07T10:45:43.963Z,56.31
2022-09-07T10:46:59.427Z,57.03
2022-09-07T10:47:44.929Z,57.03
2022-09-07T10:48:43.926Z,58.02
2022-09-07T10:50:21.914Z,58.81
2022-09-07T10:50:44.934Z,57.89
2022-09-07T10:51:43.882Z,56.09
2022-09-07T10:52:43.867Z,56.56
2022-09-07T10:53:44.888Z,55.05
2022-09-07T10:54:43.833Z,54.63
2022-09-07T10:55:43.843Z,54.70
2022-09-07T10:56:44.803Z,56.15
2022-09-07T10:57:48.763Z,53.76
2022-09-07T11:00:44.757Z,52.65
2022-09-07T11:01:43.789Z,52.43
2022-09-07T11:03:25.026Z,52.99
2022-09-07T11:03:45.173Z,52.92
2022-09-07T11:04:43.708Z,51.62
2022-09-07T11:05:43.717Z,51.57
2022-09-07T11:06:43.690Z,53.56
2022-09-07T11:07:43.660Z,53.54
2022-09-07T11:09:44.639Z,52.53
2022-09-07T11:10:43.691Z,52.23
2022-09-07T11:12:44.619Z,51.22
2022-09-07T11:14:02.070Z,51.64
2022-09-07T11:14:44.652Z,51.45
2022-09-07T11:15:43.640Z,51.45
2022-09-07T11:16:51.335Z,52.75
2022-09-07T11:17:45.868Z,52.65
2022-09-07T11:18:43.556Z,50.85
2022-09-07T11:19:43.539Z,51.18
2022-09-07T11:20:43.553Z,50.83
2022-09-07T11:21:58.756Z,52.23
2022-09-07T11:22:44.502Z,51.92
2022-09-07T11:23:43.486Z,52.09
2022-09-07T11:24:43.580Z,51.86
2022-09-07T11:25:43.480Z,53.12
2022-09-07T11:26:43.444Z,52.28
2022-09-07T11:27:43.461Z,50.54
2022-09-07T11:28:43.438Z,51.62
2022-09-07T11:29:43.424Z,49.85
2022-09-07T11:30:43.468Z,51.00
2022-09-07T11:31:43.397Z,51.27
2022-09-07T11:32:43.385Z,51.22
2022-09-07T11:34:23.888Z,49.75
2022-09-07T11:34:45.211Z,48.74
2022-09-07T11:35:43.345Z,48.28
2022-09-07T11:36:43.315Z,49.29
2022-09-07T11:37:43.318Z,49.63
2022-09-07T11:38:43.295Z,52.45
2022-09-07T11:39:44.348Z,54.20
2022-09-07T11:40:43.285Z,50.49
2022-09-07T11:41:43.270Z,52.21
2022-09-07T11:42:43.833Z,53.52
2022-09-07T11:43:43.240Z,53.47
2022-09-07T11:44:46.095Z,52.60
2022-09-07T11:45:43.210Z,49.90
2022-09-07T11:46:43.267Z,48.85
2022-09-07T11:47:43.194Z,49.07
2022-09-07T11:48:43.160Z,48.11
2022-09-07T11:49:45.409Z,44.73
2022-09-07T11:50:44.152Z,44.24
2022-09-07T11:51:43.151Z,44.78
2022-09-07T11:52:43.119Z,45.33
2022-09-07T11:53:43.126Z,45.42
2022-09-07T11:54:43.099Z,48.63
2022-09-07T11:55:43.085Z,48.47
2022-09-07T11:56:45.641Z,49.08
2022-09-07T11:57:43.054Z,48.50
2022-09-07T11:58:43.046Z,45.81
2022-09-07T11:59:43.038Z,44.94
2022-09-07T12:00:43.013Z,43.26
2022-09-07T12:01:43.003Z,42.94
2022-09-07T12:02:58.934Z,43.10
2022-09-07T12:03:44.115Z,41.38
2022-09-07T12:04:43.028Z,43.85
2022-09-07T12:05:43.029Z,44.91
2022-09-07T12:06:42.934Z,45.91
2022-09-07T12:07:42.934Z,44.77
2022-09-07T12:09:03.898Z,43.33
2022-09-07T12:09:42.922Z,42.69
2022-09-07T12:10:42.897Z,40.89
2022-09-07T12:11:43.869Z,40.91
2022-09-07T12:12:42.906Z,42.74
2022-09-07T12:13:42.848Z,41.06
2022-09-07T12:14:42.831Z,41.59
2022-09-07T12:15:42.857Z,39.98
2022-09-07T12:16:43.807Z,41.11
2022-09-07T12:17:42.810Z,43.12
2022-09-07T12:18:42.781Z,43.89
2022-09-07T12:19:42.769Z,45.25
2022-09-07T12:20:43.783Z,46.88
2022-09-07T12:21:42.757Z,48.08
2022-09-07T12:22:42.722Z,48.85
2022-09-07T12:23:42.723Z,46.76
2022-09-07T12:24:42.720Z,46.42
2022-09-07T12:25:42.694Z,49.48
2022-09-07T12:26:42.695Z,46.13
2022-09-07T12:27:42.704Z,46.74
2022-09-07T12:28:42.653Z,47.35
2022-09-07T12:29:45.740Z,47.65
2022-09-07T12:30:42.639Z,44.43
2022-09-07T12:31:57.268Z,43.98
2022-09-07T12:32:59.030Z,42.22
2022-09-07T12:33:43.609Z,43.08
2022-09-07T12:34:42.599Z,41.61
2022-09-07T12:35:44.618Z,44.01
2022-09-07T12:36:43.561Z,40.83
2022-09-07T12:37:42.565Z,40.50
2022-09-07T12:38:42.537Z,41.72
2022-09-07T12:39:42.625Z,40.99
2022-09-07T12:40:42.538Z,37.75
2022-09-07T12:41:42.520Z,37.04
2022-09-07T12:42:42.479Z,36.44
2022-09-07T12:43:42.492Z,36.24
2022-09-07T12:44:42.471Z,35.49
2022-09-07T12:45:42.535Z,35.86
2022-09-07T12:46:42.470Z,36.41
2022-09-07T12:47:43.430Z,37.05
2022-09-07T12:48:43.413Z,36.30
2022-09-07T12:49:42.476Z,38.31
2022-09-07T12:50:42.534Z,39.20
2022-09-07T12:52:43.384Z,36.33
2022-09-07T12:53:42.375Z,36.64
2022-09-07T12:54:42.351Z,37.16
2022-09-07T12:56:43.892Z,38.68
2022-09-07T12:57:42.330Z,37.32
2022-09-07T12:58:42.314Z,38.37
2022-09-07T12:59:42.311Z,37.65
2022-09-07T13:00:42.308Z,36.55
2022-09-07T13:01:42.402Z,35.15
2022-09-07T13:02:42.350Z,36.54
2022-09-07T13:03:51.724Z,37.59
2022-09-07T13:04:43.257Z,37.09
2022-09-07T13:05:42.237Z,40.17
2022-09-07T13:07:43.226Z,36.16
2022-09-07T13:08:42.207Z,37.07
2022-09-07T13:09:42.190Z,35.41
2022-09-07T13:10:42.198Z,35.58
2022-09-07T13:11:42.198Z,36.15
2022-09-07T13:12:58.065Z,35.05
2022-09-07T13:14:43.875Z,37.13
2022-09-07T13:15:42.170Z,36.95
2022-09-07T13:17:43.098Z,37.13
2022-09-07T13:18:42.093Z,36.52
2022-09-07T13:19:42.090Z,37.24
2022-09-07T13:20:43.063Z,38.81
2022-09-07T13:21:42.071Z,38.48
2022-09-07T13:22:42.055Z,37.49
2022-09-07T13:23:42.042Z,37.08
2022-09-07T13:24:49.257Z,37.59
2022-09-07T13:25:43.009Z,38.60
2022-09-07T13:26:42.020Z,38.96
2022-09-07T13:27:43.490Z,38.29
2022-09-07T13:28:41.979Z,39.76
2022-09-07T13:29:41.985Z,38.77
2022-09-07T13:30:42.546Z,38.37
2022-09-07T13:31:41.955Z,38.60
2022-09-07T13:33:42.947Z,41.75
2022-09-07T13:34:41.960Z,42.01
2022-09-07T13:35:41.928Z,43.52
2022-09-07T13:36:41.936Z,43.30
2022-09-07T13:37:41.984Z,42.07
2022-09-07T13:38:41.957Z,40.93
2022-09-07T13:39:42.982Z,40.19
2022-09-07T13:40:41.859Z,39.43
2022-09-07T13:41:41.920Z,38.13
2022-09-07T13:42:41.881Z,36.77
2022-09-07T13:43:41.814Z,37.57
2022-09-07T13:44:42.823Z,38.75
2022-09-07T13:45:42.835Z,38.46
2022-09-07T13:46:41.814Z,40.25
2022-09-07T13:47:41.861Z,39.20
2022-09-07T13:48:41.824Z,40.47
2022-09-07T13:49:41.750Z,40.68
2022-09-07T13:50:42.743Z,39.92
2022-09-07T13:51:41.841Z,42.66
2022-09-07T13:52:41.761Z,42.34
2022-09-07T13:53:41.745Z,42.81
2022-09-07T13:54:41.785Z,44.32
2022-09-07T13:56:03.776Z,46.42
2022-09-07T13:56:42.698Z,46.86
2022-09-07T13:57:41.704Z,48.06
2022-09-07T13:58:41.738Z,51.91